Tabiona
, Tabiona
Last Weather Update:09/30/2011 10:00:00 PM
Date
ETo
ETc
Rain
Irrigation
Req
Temp
Max
Temp
Min
Temp
Avg
Avg RH
Avg Wind
Avg Solar
inches
inches
incehs
inches
F
F
F
%
%
watts/m2
08/01/2011 0.30" 0.27" 0.00" 0.27" 78.1° 55.5° 64.7° 71.1% 4.3 MPH 456.1w/m2
08/02/2011 0.30" 0.27" 0.11" 0.18" 80.6° 49.6° 64.7° 61.2% 5.8 MPH 426.6w/m2
08/03/2011 0.35" 0.31" 0.00" 0.31" 81.1° 53.1° 65.8° 56.0% 4.9 MPH 508.5w/m2
08/04/2011 0.20" 0.17" 0.00" 0.17" 79.9° 48.4° 61.7° 63.0% 6.2 MPH 364.7w/m2
08/05/2011 0.15" 0.13" 0.00" 0.13" 83.8° 47.2° 64.4° 49.1% 6.8 MPH 338.4w/m2
08/06/2011 0.20" 0.17" 0.00" 0.17" 84.6° 44.2° 64.2° 36.2% 6.9 MPH 406.1w/m2
08/07/2011 0.27" 0.23" 0.00" 0.23" 81.7° 44.8° 63.6° 31.8% 8.2 MPH 390.5w/m2
08/08/2011 0.20" 0.17" 0.00" 0.17" 84.6° 46.2° 64.6° 34.4% 7.4 MPH 388.3w/m2
08/09/2011 0.25" 0.21" 0.00" 0.21" 82.2° 43.9° 64.3° 35.9% 8.6 MPH 462.3w/m2
08/10/2011 0.26" 0.22" 0.00" 0.22" 82.4° 45.4° 64.4° 33.1% 7.9 MPH 386.7w/m2
08/11/2011 0.27" 0.23" 0.00" 0.23" 82.9° 46.2° 65.8° 34.0% 8.0 MPH 399.7w/m2
08/12/2011 0.27" 0.22" 0.00" 0.22" 84.0° 48.8° 65.9° 33.9% 7.7 MPH 401.8w/m2
08/13/2011 0.30" 0.25" 0.00" 0.25" 87.0° 47.4° 67.8° 36.2% 6.0 MPH 392.2w/m2
08/14/2011 0.22" 0.17" 0.00" 0.17" 78.1° 51.9° 65.0° 59.3% 6.6 MPH 303.3w/m2
08/15/2011 0.24" 0.19" 0.20" 0.03" 82.3° 50.7° 63.9° 65.5% 5.4 MPH 437.0w/m2
08/16/2011 0.25" 0.20" 0.00" 0.20" 82.2° 46.9° 63.8° 56.1% 5.8 MPH 430.9w/m2
08/17/2011 0.28" 0.22" 0.00" 0.22" 85.0° 47.0° 65.3° 39.4% 7.5 MPH 437.8w/m2
08/18/2011 0.27" 0.21" 0.00" 0.21" 87.0° 48.6° 66.7° 38.2% 8.1 MPH 308.1w/m2
08/19/2011 0.29" 0.22" 0.00" 0.22" 84.0° 53.1° 68.2° 46.6% 5.9 MPH 465.3w/m2
08/20/2011 0.23" 0.18" 0.03" 0.16" 84.9° 50.9° 63.3° 57.0% 5.9 MPH 319.4w/m2
08/21/2011 0.25" 0.19" 0.00" 0.19" 85.8° 49.1° 65.7° 52.2% 5.8 MPH 430.1w/m2
08/22/2011 0.30" 0.22" 0.00" 0.22" 87.0° 49.8° 67.1° 46.1% 6.6 MPH 475.1w/m2
08/23/2011 0.36" 0.27" 0.00" 0.27" 90.4° 51.6° 68.9° 40.5% 6.9 MPH 451.1w/m2
08/24/2011 0.28" 0.21" 0.00" 0.21" 87.8° 52.3° 69.2° 41.1% 7.0 MPH 435.0w/m2
08/25/2011 0.21" 0.15" 0.00" 0.15" 84.4° 54.8° 66.1° 52.7% 6.1 MPH 268.9w/m2
08/26/2011 0.16" 0.12" 0.00" 0.12" 84.6° 51.7° 64.9° 61.0% 7.6 MPH 266.5w/m2
08/27/2011 0.32" 0.23" 0.00" 0.23" 81.5° 53.9° 66.7° 59.9% 6.2 MPH 450.8w/m2
08/28/2011 0.28" 0.20" 0.12" 0.10" 84.4° 55.6° 67.0° 65.2% 4.6 MPH 417.4w/m2
08/29/2011 0.26" 0.18" 0.00" 0.18" 81.5° 51.7° 66.7° 51.0% 5.6 MPH 516.2w/m2
08/30/2011 0.31" 0.22" 0.00" 0.22" 84.1° 49.1° 65.3° 50.1% 6.2 MPH 410.4w/m2
08/31/2011 0.33" 0.23" 0.00" 0.23" 82.5° 49.2° 64.9° 47.1% 6.8 MPH 453.4w/m2
Totals: 8.11" 6.45" 0.46" 6.08" 90.4° 43.9° 65.5° 48.6% 6.6 MPH 406.4w/m2